createdAt,value
2019-03-06T00:02:22.923Z,10.73
2019-03-06T00:04:52.550Z,13.73
2019-03-06T00:07:22.195Z,10.60
2019-03-06T00:09:51.875Z,9.63
2019-03-06T00:12:21.578Z,10.63
2019-03-06T00:14:52.889Z,11.70
2019-03-06T00:17:22.556Z,10.50
2019-03-06T00:19:52.276Z,12.80
2019-03-06T00:22:23.036Z,10.93
2019-03-06T00:24:52.752Z,10.97
2019-03-06T00:27:22.384Z,12.30
2019-03-06T00:29:52.059Z,11.07
2019-03-06T00:32:21.698Z,13.73
2019-03-06T00:34:52.031Z,12.87
2019-03-06T00:37:21.793Z,10.70
2019-03-06T00:39:58.649Z,13.97
2019-03-06T00:42:28.301Z,13.97
2019-03-06T00:44:57.908Z,11.37
2019-03-06T00:47:27.663Z,11.87
2019-03-06T00:49:57.261Z,10.93
2019-03-06T00:52:26.863Z,11.53
2019-03-06T00:54:56.543Z,9.43
2019-03-06T00:57:26.227Z,13.43
2019-03-06T00:59:56.055Z,10.30
2019-03-06T01:02:25.756Z,11.73
2019-03-06T01:04:55.376Z,9.43
2019-03-06T01:07:25.003Z,10.57
2019-03-06T01:09:55.368Z,11.70
2019-03-06T01:12:24.937Z,11.40
2019-03-06T01:14:56.560Z,10.07
2019-03-06T01:17:26.176Z,10.87
2019-03-06T01:19:57.999Z,10.73
2019-03-06T01:22:27.640Z,11.23
2019-03-06T01:25:01.273Z,9.87
2019-03-06T01:27:30.867Z,10.07
2019-03-06T01:30:00.462Z,11.60
2019-03-06T01:32:30.381Z,12.47
2019-03-06T01:35:17.595Z,10.57
2019-03-06T01:38:03.225Z,11.33
2019-03-06T01:40:44.756Z,12.73
2019-03-06T01:43:21.878Z,11.60
2019-03-06T01:45:51.438Z,10.90
2019-03-06T01:48:23.052Z,12.87
2019-03-06T01:50:52.723Z,12.77
2019-03-06T01:53:22.357Z,10.93
2019-03-06T01:55:52.121Z,12.07
2019-03-06T01:58:21.853Z,12.50
2019-03-06T02:00:51.590Z,13.40
2019-03-06T02:03:21.229Z,11.27
2019-03-06T02:05:50.804Z,10.67
2019-03-06T02:08:20.940Z,13.30
2019-03-06T02:10:50.842Z,11.73
2019-03-06T02:13:23.431Z,12.43
2019-03-06T02:15:52.993Z,10.47
2019-03-06T02:18:22.605Z,11.57
2019-03-06T02:20:54.287Z,12.40
2019-03-06T02:23:23.933Z,13.27
2019-03-06T02:25:53.651Z,13.87
2019-03-06T02:28:23.314Z,13.63
2019-03-06T02:30:52.990Z,11.93
2019-03-06T02:33:22.947Z,11.93
2019-03-06T02:35:53.981Z,11.43
2019-03-06T02:38:23.631Z,12.90
2019-03-06T02:40:54.329Z,12.23
2019-03-06T02:43:23.930Z,16.70
2019-03-06T02:45:54.005Z,14.03
2019-03-06T02:48:23.994Z,13.43
2019-03-06T02:50:53.738Z,12.93
2019-03-06T02:53:23.393Z,11.53
2019-03-06T02:55:52.963Z,13.20
2019-03-06T02:58:26.190Z,12.03
2019-03-06T03:01:11.486Z,13.27
2019-03-06T03:04:06.679Z,11.07
2019-03-06T03:06:43.127Z,12.13
2019-03-06T03:09:17.568Z,12.57
2019-03-06T03:11:47.280Z,12.67
2019-03-06T03:14:16.922Z,12.53
2019-03-06T03:16:46.666Z,14.30
2019-03-06T03:19:17.494Z,11.83
2019-03-06T03:21:47.424Z,12.57
2019-03-06T03:24:17.053Z,14.70
2019-03-06T03:26:46.714Z,13.83
2019-03-06T03:29:16.477Z,14.50
2019-03-06T03:31:46.187Z,13.30
2019-03-06T03:34:15.866Z,15.47
2019-03-06T03:36:45.456Z,20.07
2019-03-06T03:39:15.085Z,18.77
2019-03-06T03:41:46.018Z,20.23
2019-03-06T03:44:16.684Z,22.83
2019-03-06T03:46:46.314Z,23.53
2019-03-06T03:49:18.369Z,22.00
2019-03-06T03:51:48.068Z,16.90
2019-03-06T03:54:17.772Z,17.20
2019-03-06T03:56:47.405Z,16.67
2019-03-06T03:59:16.980Z,13.77
2019-03-06T04:01:46.717Z,15.33
2019-03-06T04:04:16.297Z,19.10
2019-03-06T04:06:45.935Z,22.70
2019-03-06T04:09:15.638Z,22.40
2019-03-06T04:11:45.370Z,18.10
2019-03-06T04:14:15.220Z,22.83
2019-03-06T04:16:44.868Z,18.60
2019-03-06T04:19:14.503Z,17.43
2019-03-06T04:21:44.130Z,16.70
2019-03-06T04:24:13.775Z,15.17
2019-03-06T04:26:43.816Z,18.37
2019-03-06T04:29:13.669Z,14.47
2019-03-06T04:31:45.456Z,16.30
2019-03-06T04:34:15.112Z,16.50
2019-03-06T04:36:44.721Z,14.33
2019-03-06T04:39:14.381Z,15.07
2019-03-06T04:41:44.389Z,15.87
2019-03-06T04:44:14.021Z,15.33
2019-03-06T04:46:43.697Z,18.20
2019-03-06T04:49:13.366Z,16.50
2019-03-06T04:51:44.181Z,16.37
2019-03-06T04:54:13.854Z,17.50
2019-03-06T04:56:43.504Z,17.20
2019-03-06T04:59:13.105Z,20.27
2019-03-06T05:01:43.812Z,19.50
2019-03-06T05:04:13.477Z,20.87
2019-03-06T05:06:43.137Z,19.07
2019-03-06T05:09:12.862Z,20.13
2019-03-06T05:11:42.482Z,20.17
2019-03-06T05:14:12.354Z,19.13
2019-03-06T05:16:59.428Z,20.10
2019-03-06T05:19:29.143Z,18.93
2019-03-06T05:21:58.785Z,20.03
2019-03-06T05:24:28.412Z,20.23
2019-03-06T05:26:58.061Z,21.33
2019-03-06T05:29:27.736Z,20.13
2019-03-06T05:32:31.079Z,24.33
2019-03-06T05:35:16.256Z,23.77
2019-03-06T05:38:10.416Z,27.17
2019-03-06T05:40:40.061Z,23.40
2019-03-06T05:43:09.706Z,21.77
2019-03-06T05:45:39.371Z,23.67
2019-03-06T05:48:09.007Z,23.43
2019-03-06T05:50:38.654Z,24.30
2019-03-06T05:53:08.312Z,26.50
2019-03-06T05:55:37.984Z,25.20
2019-03-06T05:58:07.580Z,29.80
2019-03-06T06:00:37.264Z,27.17
2019-03-06T06:03:07.013Z,33.67
2019-03-06T06:05:36.727Z,32.97
2019-03-06T06:08:08.387Z,25.93
2019-03-06T06:10:38.146Z,31.87
2019-03-06T06:13:07.700Z,26.33
2019-03-06T06:15:37.239Z,18.03
2019-03-06T06:18:06.789Z,18.53
2019-03-06T06:20:37.377Z,17.30
2019-03-06T06:23:26.365Z,22.03
2019-03-06T06:25:56.025Z,20.27
2019-03-06T06:28:25.665Z,18.73
2019-03-06T06:30:56.304Z,20.03
2019-03-06T06:33:26.030Z,18.63
2019-03-06T06:35:55.854Z,18.40
2019-03-06T06:38:25.573Z,20.70
2019-03-06T06:40:55.643Z,20.03
2019-03-06T06:43:26.477Z,29.77
2019-03-06T06:45:56.344Z,25.10
2019-03-06T06:48:27.047Z,22.33
2019-03-06T06:51:32.635Z,19.97
2019-03-06T06:54:26.903Z,18.17
2019-03-06T06:57:22.350Z,21.17
2019-03-06T07:00:20.401Z,19.47
2019-03-06T07:03:26.193Z,20.40
2019-03-06T07:06:07.784Z,21.33
2019-03-06T07:08:55.005Z,23.33
2019-03-06T07:11:49.817Z,21.10
2019-03-06T07:14:35.790Z,21.80
2019-03-06T07:17:12.100Z,24.23
2019-03-06T07:20:00.730Z,28.97
2019-03-06T07:22:55.172Z,23.57
2019-03-06T07:25:42.508Z,25.93
2019-03-06T07:28:26.605Z,25.33
2019-03-06T07:31:27.411Z,26.27
2019-03-06T07:34:25.388Z,25.90
2019-03-06T07:37:01.910Z,25.30
2019-03-06T07:40:02.620Z,22.30
2019-03-06T07:42:51.302Z,23.33
2019-03-06T07:46:05.933Z,21.33
2019-03-06T07:49:01.116Z,20.07
2019-03-06T07:51:48.290Z,19.83
2019-03-06T07:54:35.846Z,21.33
2019-03-06T07:57:39.633Z,21.80
2019-03-06T08:00:18.079Z,22.53
2019-03-06T08:03:36.466Z,20.10
2019-03-06T08:06:06.224Z,21.53
2019-03-06T08:08:35.971Z,24.37
2019-03-06T08:11:12.150Z,22.40
2019-03-06T08:14:06.819Z,21.13
2019-03-06T08:20:12.388Z,21.17
2019-03-06T08:23:01.348Z,22.57
2019-03-06T08:25:50.078Z,19.63
2019-03-06T08:28:31.144Z,19.43
2019-03-06T08:31:20.020Z,18.23
2019-03-06T08:33:52.752Z,18.30
2019-03-06T08:36:22.629Z,22.07
2019-03-06T08:38:52.441Z,19.10
2019-03-06T08:41:22.462Z,20.10
2019-03-06T08:43:52.311Z,20.27
2019-03-06T08:46:41.031Z,19.33
2019-03-06T08:49:32.420Z,21.70
2019-03-06T08:52:08.081Z,21.40
2019-03-06T08:54:59.532Z,22.10
2019-03-06T08:57:47.244Z,19.67
2019-03-06T09:00:44.887Z,23.27
2019-03-06T09:03:34.383Z,17.63
2019-03-06T09:06:22.991Z,18.70
2019-03-06T09:09:14.752Z,21.90
2019-03-06T09:11:53.290Z,16.90
2019-03-06T09:14:54.201Z,16.97
2019-03-06T09:17:46.113Z,19.30
2019-03-06T09:20:39.977Z,16.10
2019-03-06T09:23:22.731Z,17.97
2019-03-06T09:26:06.340Z,15.63
2019-03-06T09:29:00.485Z,15.97
2019-03-06T09:31:40.590Z,15.17
2019-03-06T09:34:20.085Z,16.50
2019-03-06T09:37:11.061Z,15.67
2019-03-06T09:39:51.457Z,14.67
2019-03-06T09:42:47.838Z,13.93
2019-03-06T09:45:22.070Z,17.00
2019-03-06T09:48:13.758Z,13.00
2019-03-06T09:51:10.764Z,14.03
2019-03-06T09:54:00.076Z,15.97
2019-03-06T09:57:00.357Z,16.67
2019-03-06T09:59:46.932Z,15.37
2019-03-06T10:02:23.465Z,16.37
2019-03-06T10:05:08.371Z,16.53
2019-03-06T10:07:59.867Z,19.10
2019-03-06T10:11:07.009Z,16.57
2019-03-06T10:13:52.242Z,16.07
2019-03-06T10:16:28.774Z,17.23
2019-03-06T10:19:16.504Z,18.23
2019-03-06T10:21:48.377Z,18.70
2019-03-06T10:24:18.286Z,17.23
2019-03-06T10:26:48.059Z,17.33
2019-03-06T10:29:17.894Z,19.50
2019-03-06T10:31:52.074Z,16.17
2019-03-06T10:34:22.221Z,16.27
2019-03-06T10:36:51.997Z,19.60
2019-03-06T10:39:21.886Z,18.73
2019-03-06T10:41:51.632Z,14.97
2019-03-06T10:44:28.825Z,13.60
2019-03-06T10:46:53.083Z,11.60
2019-03-06T10:49:22.872Z,12.97
2019-03-06T10:51:52.724Z,14.43
2019-03-06T10:54:23.436Z,13.37
2019-03-06T10:56:53.539Z,13.17
2019-03-06T10:59:23.308Z,13.73
2019-03-06T11:01:53.071Z,15.00
2019-03-06T11:04:44.444Z,14.57
2019-03-06T11:07:42.054Z,11.87
2019-03-06T11:10:12.476Z,13.07
2019-03-06T11:12:42.572Z,14.33
2019-03-06T11:15:12.791Z,12.17
2019-03-06T11:17:44.151Z,14.83
2019-03-06T11:20:16.864Z,13.63
2019-03-06T11:22:46.616Z,13.53
2019-03-06T11:25:16.661Z,13.77
2019-03-06T11:27:46.406Z,14.63
2019-03-06T11:30:29.318Z,14.37
2019-03-06T11:32:59.032Z,15.00
2019-03-06T11:35:28.949Z,13.00
2019-03-06T11:37:58.999Z,15.83
2019-03-06T11:40:29.270Z,14.23
2019-03-06T11:42:59.019Z,14.80
2019-03-06T11:45:28.981Z,15.47
2019-03-06T11:47:58.822Z,14.93
2019-03-06T11:50:40.911Z,16.27
2019-03-06T11:53:07.938Z,13.57
2019-03-06T11:55:39.533Z,13.00
2019-03-06T11:58:12.906Z,13.10
2019-03-06T12:00:44.798Z,12.43
2019-03-06T12:03:17.035Z,11.97
2019-03-06T12:05:47.168Z,11.27
2019-03-06T12:08:17.385Z,11.73
2019-03-06T12:10:47.328Z,10.00
2019-03-06T12:13:17.861Z,11.60
2019-03-06T12:15:49.024Z,11.33
2019-03-06T12:18:19.851Z,15.13
2019-03-06T12:20:49.514Z,10.90
2019-03-06T12:23:19.281Z,10.17
2019-03-06T12:25:48.884Z,10.03
2019-03-06T12:28:18.710Z,10.93
2019-03-06T12:30:48.728Z,11.10
2019-03-06T12:33:21.132Z,10.20
2019-03-06T12:35:50.738Z,10.03
2019-03-06T12:38:20.550Z,9.13
2019-03-06T12:40:50.216Z,9.23
2019-03-06T12:43:19.869Z,9.03
2019-03-06T12:46:32.380Z,9.10
2019-03-06T12:49:04.317Z,9.90
2019-03-06T12:51:35.384Z,8.47
2019-03-06T12:54:05.880Z,7.30
2019-03-06T12:56:35.620Z,7.73
2019-03-06T12:59:06.340Z,7.47
2019-03-06T13:01:36.108Z,7.67
2019-03-06T13:04:06.067Z,7.80
2019-03-06T13:06:37.567Z,7.77
2019-03-06T13:09:17.569Z,9.67
2019-03-06T13:11:47.156Z,7.57
2019-03-06T13:14:16.804Z,7.53
2019-03-06T13:16:46.886Z,7.50
2019-03-06T13:19:16.564Z,7.17
2019-03-06T13:21:46.220Z,8.03
2019-03-06T13:24:16.102Z,7.57
2019-03-06T13:26:45.693Z,7.10
2019-03-06T13:29:15.435Z,6.57
2019-03-06T13:31:45.078Z,6.80
2019-03-06T13:34:22.529Z,8.73
2019-03-06T13:36:52.180Z,6.77
2019-03-06T13:39:21.782Z,6.53
2019-03-06T13:41:51.804Z,6.77
2019-03-06T13:44:21.522Z,6.73
2019-03-06T13:46:51.128Z,6.30
2019-03-06T13:49:20.759Z,6.63
2019-03-06T13:51:50.538Z,7.10
2019-03-06T13:54:20.128Z,7.70
2019-03-06T13:56:51.795Z,8.67
2019-03-06T13:59:21.221Z,6.83
2019-03-06T14:01:51.030Z,7.00
2019-03-06T14:04:20.613Z,7.97
2019-03-06T14:06:50.315Z,7.23
2019-03-06T14:09:19.929Z,9.17
2019-03-06T14:11:49.832Z,8.37
2019-03-06T14:14:19.474Z,8.00
2019-03-06T14:16:49.103Z,7.67
2019-03-06T14:19:18.849Z,7.37
2019-03-06T14:21:50.026Z,10.30
2019-03-06T14:24:20.123Z,6.90
2019-03-06T14:26:49.768Z,6.13
2019-03-06T14:29:19.440Z,7.17
2019-03-06T14:31:49.037Z,6.37
2019-03-06T14:34:18.696Z,6.87
2019-03-06T14:36:48.401Z,7.03
2019-03-06T14:39:31.370Z,6.83
2019-03-06T14:42:01.963Z,7.37
2019-03-06T14:44:34.661Z,6.57
2019-03-06T14:47:04.277Z,7.07
2019-03-06T14:49:34.212Z,6.20
2019-03-06T14:52:07.084Z,7.27
2019-03-06T14:54:35.460Z,6.17
2019-03-06T14:57:07.188Z,5.83
2019-03-06T14:59:36.722Z,6.67
2019-03-06T15:02:06.298Z,6.40
2019-03-06T15:04:35.881Z,5.10
2019-03-06T15:07:07.384Z,6.40
2019-03-06T15:09:38.188Z,5.73
2019-03-06T15:12:08.057Z,5.67
2019-03-06T15:14:38.070Z,6.23
2019-03-06T15:17:09.565Z,6.23
2019-03-06T15:19:41.922Z,6.60
2019-03-06T15:22:11.736Z,6.20
2019-03-06T15:24:41.959Z,6.87
2019-03-06T15:27:13.300Z,7.03
2019-03-06T15:29:45.104Z,6.93
2019-03-06T15:32:16.630Z,8.27
2019-03-06T15:34:46.557Z,7.63
2019-03-06T15:37:19.252Z,8.23
2019-03-06T15:39:56.432Z,8.90
2019-03-06T15:42:26.618Z,7.20
2019-03-06T15:44:58.673Z,7.03
2019-03-06T15:47:33.719Z,9.17
2019-03-06T15:49:59.860Z,11.77
2019-03-06T15:52:29.690Z,10.20
2019-03-06T15:54:59.327Z,9.30
2019-03-06T15:57:29.008Z,8.90
2019-03-06T15:59:58.599Z,9.17
2019-03-06T16:02:30.968Z,8.20
2019-03-06T16:05:00.604Z,9.27
2019-03-06T16:07:30.302Z,8.80
2019-03-06T16:09:59.855Z,9.67
2019-03-06T16:12:30.578Z,10.57
2019-03-06T16:15:00.210Z,10.03
2019-03-06T16:17:29.817Z,10.97
2019-03-06T16:20:00.484Z,11.07
2019-03-06T16:22:30.156Z,10.93
2019-03-06T16:24:59.744Z,10.70
2019-03-06T16:27:29.480Z,11.50
2019-03-06T16:29:59.170Z,13.03
2019-03-06T16:32:29.156Z,13.03
2019-03-06T16:34:58.817Z,11.73
2019-03-06T16:37:28.468Z,11.63
2019-03-06T16:39:58.067Z,11.60
2019-03-06T16:42:27.663Z,13.20
2019-03-06T16:44:57.283Z,12.13
2019-03-06T16:47:26.907Z,13.57
2019-03-06T16:49:56.454Z,11.97
2019-03-06T16:52:26.109Z,12.53
2019-03-06T16:54:55.705Z,12.77
2019-03-06T16:57:25.342Z,13.27
2019-03-06T16:59:55.275Z,12.53
2019-03-06T17:02:24.872Z,11.93
2019-03-06T17:04:54.466Z,13.30
2019-03-06T17:07:24.104Z,25.73
2019-03-06T17:09:53.833Z,16.00
2019-03-06T17:12:25.157Z,18.30
2019-03-06T17:14:56.747Z,20.77
2019-03-06T17:17:27.963Z,27.87
2019-03-06T17:20:00.313Z,21.77
2019-03-06T17:22:33.755Z,17.93
2019-03-06T17:25:06.155Z,20.43
2019-03-06T17:27:37.110Z,22.30
2019-03-06T17:30:12.631Z,19.80
2019-03-06T17:33:19.259Z,21.70
2019-03-06T17:35:53.406Z,22.40
2019-03-06T17:38:23.544Z,26.73
2019-03-06T17:41:01.780Z,28.03
2019-03-06T17:43:32.946Z,34.67
2019-03-06T17:46:06.075Z,31.47
2019-03-06T17:49:55.561Z,29.10
2019-03-06T17:51:40.083Z,26.90
2019-03-06T17:54:09.893Z,21.83
2019-03-06T17:56:39.750Z,22.37
2019-03-06T17:59:09.477Z,26.17
2019-03-06T18:01:39.263Z,23.50
2019-03-06T18:04:16.578Z,31.73
2019-03-06T18:06:46.234Z,43.10
2019-03-06T18:09:15.901Z,31.97
2019-03-06T18:11:45.697Z,31.63
2019-03-06T18:14:17.120Z,35.07
2019-03-06T18:16:49.181Z,36.13
2019-03-06T18:19:27.949Z,36.47
2019-03-06T18:22:12.458Z,41.50
2019-03-06T18:24:42.442Z,27.87
2019-03-06T18:27:12.154Z,31.67
2019-03-06T18:29:42.856Z,28.50
2019-03-06T18:32:12.670Z,27.70
2019-03-06T18:34:42.608Z,23.63
2019-03-06T18:37:12.827Z,25.00
2019-03-06T18:39:49.623Z,27.33
2019-03-06T18:42:19.319Z,21.63
2019-03-06T18:44:49.113Z,23.70
2019-03-06T18:47:18.943Z,29.20
2019-03-06T18:49:48.687Z,27.53
2019-03-06T18:52:19.001Z,28.37
2019-03-06T18:54:48.817Z,29.00
2019-03-06T18:57:18.501Z,28.77
2019-03-06T18:59:59.633Z,31.13
2019-03-06T19:02:30.276Z,26.77
2019-03-06T19:05:05.557Z,29.67
2019-03-06T19:07:36.082Z,34.87
2019-03-06T19:10:11.309Z,35.97
2019-03-06T19:12:41.025Z,35.23
2019-03-06T19:15:14.005Z,28.93
2019-03-06T19:17:43.712Z,34.73
2019-03-06T19:20:14.060Z,32.97
2019-03-06T19:22:43.962Z,31.03
2019-03-06T19:25:14.034Z,27.17
2019-03-06T19:27:43.716Z,26.67
2019-03-06T19:30:18.280Z,23.70
2019-03-06T19:32:48.330Z,24.27
2019-03-06T19:35:20.293Z,27.17
2019-03-06T19:37:50.083Z,26.10
2019-03-06T19:40:20.260Z,22.70
2019-03-06T19:42:49.950Z,26.13
2019-03-06T19:45:20.170Z,29.10
2019-03-06T19:47:50.780Z,26.77
2019-03-06T19:50:21.721Z,30.60
2019-03-06T19:52:53.712Z,34.60
2019-03-06T19:55:24.140Z,30.27
2019-03-06T19:57:58.441Z,33.70
2019-03-06T20:00:29.546Z,41.70
2019-03-06T20:02:59.672Z,34.63
2019-03-06T20:05:35.576Z,32.13
2019-03-06T20:08:09.101Z,30.43
2019-03-06T20:10:39.631Z,29.60
2019-03-06T20:13:09.910Z,40.70
2019-03-06T20:15:39.930Z,40.37
2019-03-06T20:18:17.580Z,39.47
2019-03-06T20:20:47.234Z,24.93
2019-03-06T20:23:16.928Z,25.47
2019-03-06T20:25:46.528Z,25.93
2019-03-06T20:28:16.224Z,29.97
2019-03-06T20:30:45.979Z,36.97
2019-03-06T20:33:15.676Z,38.87
2019-03-06T20:35:45.307Z,33.27
2019-03-06T20:38:15.115Z,38.27
2019-03-06T20:40:44.768Z,41.57
2019-03-06T20:43:14.392Z,45.60
2019-03-06T20:45:46.868Z,52.00
2019-03-06T20:48:16.533Z,50.60
2019-03-06T20:50:46.310Z,43.53
2019-03-06T20:53:16.032Z,35.23
2019-03-06T20:55:45.706Z,40.37
2019-03-06T20:58:15.578Z,43.40
2019-03-06T21:00:45.329Z,33.90
2019-03-06T21:03:14.976Z,31.53
2019-03-06T21:05:44.592Z,26.87
2019-03-06T21:08:14.376Z,23.17
2019-03-06T21:10:44.061Z,20.10
2019-03-06T21:13:13.648Z,23.23
2019-03-06T21:15:43.275Z,27.70
2019-03-06T21:18:14.394Z,39.93
2019-03-06T21:20:44.240Z,49.83
2019-03-06T21:23:14.175Z,49.57
2019-03-06T21:25:43.768Z,46.33
2019-03-06T21:28:13.365Z,36.57
2019-03-06T21:30:43.255Z,32.43
2019-03-06T21:33:13.256Z,37.47
2019-03-06T21:35:44.222Z,36.17
2019-03-06T21:38:14.071Z,27.60
2019-03-06T21:40:43.647Z,24.00
2019-03-06T21:43:13.260Z,26.47
2019-03-06T21:45:44.119Z,43.20
2019-03-06T21:48:26.982Z,26.80
2019-03-06T21:51:05.320Z,21.10
2019-03-06T21:53:41.907Z,21.43
2019-03-06T21:56:30.900Z,19.60
2019-03-06T21:59:58.561Z,21.93
2019-03-06T22:05:22.059Z,32.37
2019-03-06T22:08:34.840Z,34.17
2019-03-06T22:13:18.454Z,26.67
2019-03-06T22:15:05.691Z,25.83
2019-03-06T22:18:29.062Z,26.13
2019-03-06T22:25:26.127Z,25.97
2019-03-06T22:36:31.512Z,22.97
2019-03-06T22:39:51.192Z,25.17
2019-03-06T22:42:38.360Z,25.73
2019-03-06T22:46:07.873Z,23.83
2019-03-06T22:58:52.550Z,30.23
2019-03-06T23:01:55.444Z,25.50
2019-03-06T23:05:13.901Z,25.53
2019-03-06T23:08:22.114Z,24.73
2019-03-06T23:11:51.867Z,25.40
2019-03-06T23:14:26.474Z,24.27
2019-03-06T23:21:33.498Z,26.23
2019-03-06T23:39:55.781Z,26.90
2019-03-06T23:42:47.876Z,29.50
2019-03-06T23:45:40.523Z,25.13
2019-03-06T23:48:57.223Z,26.43
2019-03-06T23:52:02.071Z,26.37
2019-03-06T23:55:06.293Z,30.57
2019-03-06T23:58:39.515Z,24.17
